sensor_id;sensor_type;location;lat;lon;timestamp;P1;durP1;ratioP1;P2;durP2;ratioP2
63087;SDS011;49173;43.164;27.786;2023-06-10T00:02:07;6.85;;;3.65;;
63087;SDS011;49173;43.164;27.786;2023-06-10T00:04:33;9.57;;;4.30;;
63087;SDS011;49173;43.164;27.786;2023-06-10T00:07:02;8.18;;;3.92;;
63087;SDS011;49173;43.164;27.786;2023-06-10T00:09:29;6.45;;;4.22;;
63087;SDS011;49173;43.164;27.786;2023-06-10T00:11:56;10.30;;;4.40;;
63087;SDS011;49173;43.164;27.786;2023-06-10T00:14:25;5.15;;;4.00;;
63087;SDS011;49173;43.164;27.786;2023-06-10T00:16:50;10.38;;;5.20;;
63087;SDS011;49173;43.164;27.786;2023-06-10T00:19:17;6.93;;;4.57;;
63087;SDS011;49173;43.164;27.786;2023-06-10T00:21:44;7.28;;;3.97;;
63087;SDS011;49173;43.164;27.786;2023-06-10T00:24:10;7.20;;;4.57;;
63087;SDS011;49173;43.164;27.786;2023-06-10T00:26:40;8.25;;;4.70;;
63087;SDS011;49173;43.164;27.786;2023-06-10T00:31:36;7.47;;;4.07;;
63087;SDS011;49173;43.164;27.786;2023-06-10T00:34:03;6.82;;;3.90;;
63087;SDS011;49173;43.164;27.786;2023-06-10T00:36:29;5.25;;;3.70;;
63087;SDS011;49173;43.164;27.786;2023-06-10T00:38:55;8.15;;;4.15;;
63087;SDS011;49173;43.164;27.786;2023-06-10T00:41:22;10.65;;;3.78;;
63087;SDS011;49173;43.164;27.786;2023-06-10T00:43:48;6.47;;;3.47;;
63087;SDS011;49173;43.164;27.786;2023-06-10T00:46:14;8.00;;;3.67;;
63087;SDS011;49173;43.164;27.786;2023-06-10T00:48:41;4.75;;;3.55;;
63087;SDS011;49173;43.164;27.786;2023-06-10T00:51:08;6.75;;;3.70;;
63087;SDS011;49173;43.164;27.786;2023-06-10T00:53:35;6.88;;;3.42;;
63087;SDS011;49173;43.164;27.786;2023-06-10T00:56:05;7.82;;;3.28;;
63087;SDS011;49173;43.164;27.786;2023-06-10T00:58:31;5.80;;;3.60;;
63087;SDS011;49173;43.164;27.786;2023-06-10T01:00:57;5.68;;;3.47;;
63087;SDS011;49173;43.164;27.786;2023-06-10T01:03:23;7.47;;;3.70;;
63087;SDS011;49173;43.164;27.786;2023-06-10T01:06:01;9.25;;;3.90;;
63087;SDS011;49173;43.164;27.786;2023-06-10T01:08:42;7.20;;;3.90;;
63087;SDS011;49173;43.164;27.786;2023-06-10T01:11:16;8.43;;;4.70;;
63087;SDS011;49173;43.164;27.786;2023-06-10T01:13:46;8.18;;;5.47;;
63087;SDS011;49173;43.164;27.786;2023-06-10T01:16:16;7.57;;;6.20;;
63087;SDS011;49173;43.164;27.786;2023-06-10T01:18:44;9.73;;;5.93;;
63087;SDS011;49173;43.164;27.786;2023-06-10T01:21:19;6.72;;;4.30;;
63087;SDS011;49173;43.164;27.786;2023-06-10T01:23:46;6.85;;;3.42;;
63087;SDS011;49173;43.164;27.786;2023-06-10T01:26:12;5.75;;;3.30;;
63087;SDS011;49173;43.164;27.786;2023-06-10T01:28:44;5.07;;;3.30;;
63087;SDS011;49173;43.164;27.786;2023-06-10T01:34:07;6.70;;;4.10;;
63087;SDS011;49173;43.164;27.786;2023-06-10T01:36:38;7.57;;;4.47;;
63087;SDS011;49173;43.164;27.786;2023-06-10T01:39:05;9.75;;;5.22;;
63087;SDS011;49173;43.164;27.786;2023-06-10T01:41:35;7.88;;;5.25;;
63087;SDS011;49173;43.164;27.786;2023-06-10T01:44:02;8.15;;;4.97;;
63087;SDS011;49173;43.164;27.786;2023-06-10T01:46:28;9.05;;;5.40;;
63087;SDS011;49173;43.164;27.786;2023-06-10T01:48:55;7.43;;;5.35;;
63087;SDS011;49173;43.164;27.786;2023-06-10T01:51:21;10.80;;;6.15;;
63087;SDS011;49173;43.164;27.786;2023-06-10T01:53:47;10.55;;;6.53;;
63087;SDS011;49173;43.164;27.786;2023-06-10T01:56:13;10.32;;;6.55;;
63087;SDS011;49173;43.164;27.786;2023-06-10T01:58:44;11.88;;;7.50;;
63087;SDS011;49173;43.164;27.786;2023-06-10T02:01:11;13.68;;;8.93;;
63087;SDS011;49173;43.164;27.786;2023-06-10T02:03:37;15.00;;;10.18;;
63087;SDS011;49173;43.164;27.786;2023-06-10T02:06:02;16.05;;;10.32;;
63087;SDS011;49173;43.164;27.786;2023-06-10T02:08:28;16.10;;;9.85;;
63087;SDS011;49173;43.164;27.786;2023-06-10T02:10:54;18.77;;;11.02;;
63087;SDS011;49173;43.164;27.786;2023-06-10T02:13:20;15.52;;;11.43;;
63087;SDS011;49173;43.164;27.786;2023-06-10T02:15:46;18.27;;;11.98;;
63087;SDS011;49173;43.164;27.786;2023-06-10T02:18:11;29.25;;;12.70;;
63087;SDS011;49173;43.164;27.786;2023-06-10T02:20:37;21.02;;;12.48;;
63087;SDS011;49173;43.164;27.786;2023-06-10T02:23:03;17.50;;;13.32;;
63087;SDS011;49173;43.164;27.786;2023-06-10T02:25:29;23.50;;;13.75;;
63087;SDS011;49173;43.164;27.786;2023-06-10T02:27:55;20.02;;;13.57;;
63087;SDS011;49173;43.164;27.786;2023-06-10T02:30:21;21.25;;;13.95;;
63087;SDS011;49173;43.164;27.786;2023-06-10T02:32:47;21.30;;;14.60;;
63087;SDS011;49173;43.164;27.786;2023-06-10T02:35:13;20.55;;;15.93;;
63087;SDS011;49173;43.164;27.786;2023-06-10T02:37:40;23.55;;;15.68;;
63087;SDS011;49173;43.164;27.786;2023-06-10T02:40:09;28.95;;;18.30;;
63087;SDS011;49173;43.164;27.786;2023-06-10T02:42:35;25.88;;;18.48;;
63087;SDS011;49173;43.164;27.786;2023-06-10T02:45:01;30.98;;;19.00;;
63087;SDS011;49173;43.164;27.786;2023-06-10T02:47:28;29.45;;;18.55;;
63087;SDS011;49173;43.164;27.786;2023-06-10T02:49:53;31.02;;;19.45;;
63087;SDS011;49173;43.164;27.786;2023-06-10T02:52:20;28.63;;;19.10;;
63087;SDS011;49173;43.164;27.786;2023-06-10T02:54:45;27.58;;;18.45;;
63087;SDS011;49173;43.164;27.786;2023-06-10T02:57:11;25.08;;;17.58;;
63087;SDS011;49173;43.164;27.786;2023-06-10T02:59:39;25.95;;;17.85;;
63087;SDS011;49173;43.164;27.786;2023-06-10T03:02:06;25.30;;;16.05;;
63087;SDS011;49173;43.164;27.786;2023-06-10T03:04:32;22.27;;;15.98;;
63087;SDS011;49173;43.164;27.786;2023-06-10T03:06:58;24.25;;;15.93;;
63087;SDS011;49173;43.164;27.786;2023-06-10T03:09:25;23.35;;;15.82;;
63087;SDS011;49173;43.164;27.786;2023-06-10T03:11:51;23.00;;;15.27;;
63087;SDS011;49173;43.164;27.786;2023-06-10T03:14:17;20.13;;;14.68;;
63087;SDS011;49173;43.164;27.786;2023-06-10T03:16:42;21.75;;;14.85;;
63087;SDS011;49173;43.164;27.786;2023-06-10T03:19:09;24.25;;;15.13;;
63087;SDS011;49173;43.164;27.786;2023-06-10T03:21:35;20.42;;;15.15;;
63087;SDS011;49173;43.164;27.786;2023-06-10T03:24:03;29.40;;;17.25;;
63087;SDS011;49173;43.164;27.786;2023-06-10T03:26:29;26.73;;;16.42;;
63087;SDS011;49173;43.164;27.786;2023-06-10T03:28:55;24.90;;;15.65;;
63087;SDS011;49173;43.164;27.786;2023-06-10T03:31:21;28.05;;;16.55;;
63087;SDS011;49173;43.164;27.786;2023-06-10T03:33:46;22.88;;;15.40;;
63087;SDS011;49173;43.164;27.786;2023-06-10T03:36:12;23.38;;;14.85;;
63087;SDS011;49173;43.164;27.786;2023-06-10T03:38:38;24.85;;;14.30;;
63087;SDS011;49173;43.164;27.786;2023-06-10T03:41:04;24.35;;;14.30;;
63087;SDS011;49173;43.164;27.786;2023-06-10T03:43:31;19.17;;;14.48;;
63087;SDS011;49173;43.164;27.786;2023-06-10T03:45:59;21.27;;;14.52;;
63087;SDS011;49173;43.164;27.786;2023-06-10T03:48:25;22.83;;;13.73;;
63087;SDS011;49173;43.164;27.786;2023-06-10T03:50:51;20.13;;;13.45;;
63087;SDS011;49173;43.164;27.786;2023-06-10T03:53:17;24.88;;;14.20;;
63087;SDS011;49173;43.164;27.786;2023-06-10T03:55:43;19.50;;;12.82;;
63087;SDS011;49173;43.164;27.786;2023-06-10T03:58:10;23.40;;;13.73;;
63087;SDS011;49173;43.164;27.786;2023-06-10T04:00:38;17.83;;;13.05;;
63087;SDS011;49173;43.164;27.786;2023-06-10T04:03:07;17.42;;;12.15;;
63087;SDS011;49173;43.164;27.786;2023-06-10T04:05:34;19.42;;;11.95;;
63087;SDS011;49173;43.164;27.786;2023-06-10T04:08:00;17.10;;;11.40;;
63087;SDS011;49173;43.164;27.786;2023-06-10T04:10:27;14.85;;;10.48;;
63087;SDS011;49173;43.164;27.786;2023-06-10T04:12:53;18.52;;;12.52;;
63087;SDS011;49173;43.164;27.786;2023-06-10T04:15:22;17.80;;;13.60;;
63087;SDS011;49173;43.164;27.786;2023-06-10T04:17:48;23.50;;;12.93;;
63087;SDS011;49173;43.164;27.786;2023-06-10T04:20:14;16.13;;;11.70;;
63087;SDS011;49173;43.164;27.786;2023-06-10T04:22:43;16.17;;;9.70;;
63087;SDS011;49173;43.164;27.786;2023-06-10T04:25:09;19.23;;;10.43;;
63087;SDS011;49173;43.164;27.786;2023-06-10T04:27:36;20.15;;;10.80;;
63087;SDS011;49173;43.164;27.786;2023-06-10T04:30:02;16.65;;;10.15;;
63087;SDS011;49173;43.164;27.786;2023-06-10T04:32:29;15.55;;;10.20;;
63087;SDS011;49173;43.164;27.786;2023-06-10T04:34:55;18.77;;;9.10;;
63087;SDS011;49173;43.164;27.786;2023-06-10T04:37:21;16.08;;;9.52;;
63087;SDS011;49173;43.164;27.786;2023-06-10T04:39:47;14.52;;;8.82;;
63087;SDS011;49173;43.164;27.786;2023-06-10T04:42:12;12.63;;;7.30;;
63087;SDS011;49173;43.164;27.786;2023-06-10T04:44:44;12.30;;;6.93;;
63087;SDS011;49173;43.164;27.786;2023-06-10T04:47:10;14.35;;;8.30;;
63087;SDS011;49173;43.164;27.786;2023-06-10T04:49:36;14.32;;;8.07;;
63087;SDS011;49173;43.164;27.786;2023-06-10T04:52:02;15.05;;;8.13;;
63087;SDS011;49173;43.164;27.786;2023-06-10T04:54:30;17.10;;;7.15;;
63087;SDS011;49173;43.164;27.786;2023-06-10T04:56:56;8.50;;;6.32;;
63087;SDS011;49173;43.164;27.786;2023-06-10T04:59:22;12.88;;;6.57;;
63087;SDS011;49173;43.164;27.786;2023-06-10T05:01:48;9.63;;;5.65;;
63087;SDS011;49173;43.164;27.786;2023-06-10T05:04:14;11.85;;;5.38;;
63087;SDS011;49173;43.164;27.786;2023-06-10T05:06:43;10.40;;;4.63;;
63087;SDS011;49173;43.164;27.786;2023-06-10T05:09:09;11.10;;;5.30;;
63087;SDS011;49173;43.164;27.786;2023-06-10T05:11:38;6.88;;;4.60;;
63087;SDS011;49173;43.164;27.786;2023-06-10T05:14:04;10.15;;;5.70;;
63087;SDS011;49173;43.164;27.786;2023-06-10T05:16:30;7.95;;;4.65;;
63087;SDS011;49173;43.164;27.786;2023-06-10T05:18:56;10.93;;;4.40;;
63087;SDS011;49173;43.164;27.786;2023-06-10T05:21:22;13.43;;;5.00;;
63087;SDS011;49173;43.164;27.786;2023-06-10T05:23:48;9.82;;;4.55;;
63087;SDS011;49173;43.164;27.786;2023-06-10T05:26:17;7.22;;;4.00;;
63087;SDS011;49173;43.164;27.786;2023-06-10T05:28:42;7.95;;;4.05;;
63087;SDS011;49173;43.164;27.786;2023-06-10T05:31:08;12.43;;;4.60;;
63087;SDS011;49173;43.164;27.786;2023-06-10T05:33:34;8.35;;;3.88;;
63087;SDS011;49173;43.164;27.786;2023-06-10T05:36:00;5.97;;;3.92;;
63087;SDS011;49173;43.164;27.786;2023-06-10T05:38:26;9.90;;;3.70;;
63087;SDS011;49173;43.164;27.786;2023-06-10T05:40:51;8.07;;;4.10;;
63087;SDS011;49173;43.164;27.786;2023-06-10T05:43:18;8.43;;;3.72;;
63087;SDS011;49173;43.164;27.786;2023-06-10T05:45:44;8.55;;;3.90;;
63087;SDS011;49173;43.164;27.786;2023-06-10T05:48:10;12.48;;;3.35;;
63087;SDS011;49173;43.164;27.786;2023-06-10T05:50:36;9.93;;;3.67;;
63087;SDS011;49173;43.164;27.786;2023-06-10T05:53:04;7.72;;;3.58;;
63087;SDS011;49173;43.164;27.786;2023-06-10T05:55:32;5.38;;;3.03;;
63087;SDS011;49173;43.164;27.786;2023-06-10T05:57:59;8.85;;;3.55;;
63087;SDS011;49173;43.164;27.786;2023-06-10T06:00:26;6.95;;;3.63;;
63087;SDS011;49173;43.164;27.786;2023-06-10T06:02:52;5.95;;;3.53;;
63087;SDS011;49173;43.164;27.786;2023-06-10T06:05:19;11.52;;;3.33;;
63087;SDS011;49173;43.164;27.786;2023-06-10T06:07:45;7.00;;;3.20;;
63087;SDS011;49173;43.164;27.786;2023-06-10T06:10:11;10.20;;;3.75;;
63087;SDS011;49173;43.164;27.786;2023-06-10T06:12:37;8.48;;;3.83;;
63087;SDS011;49173;43.164;27.786;2023-06-10T06:15:03;6.65;;;3.53;;
63087;SDS011;49173;43.164;27.786;2023-06-10T06:17:37;6.93;;;3.20;;
63087;SDS011;49173;43.164;27.786;2023-06-10T06:20:03;5.13;;;3.35;;
63087;SDS011;49173;43.164;27.786;2023-06-10T06:22:29;6.95;;;3.30;;
63087;SDS011;49173;43.164;27.786;2023-06-10T06:24:55;5.35;;;3.15;;
63087;SDS011;49173;43.164;27.786;2023-06-10T06:27:21;4.95;;;3.08;;
63087;SDS011;49173;43.164;27.786;2023-06-10T06:29:47;10.30;;;3.72;;
63087;SDS011;49173;43.164;27.786;2023-06-10T06:32:12;10.00;;;3.10;;
63087;SDS011;49173;43.164;27.786;2023-06-10T06:34:38;6.15;;;3.30;;
63087;SDS011;49173;43.164;27.786;2023-06-10T06:37:05;9.43;;;3.28;;
63087;SDS011;49173;43.164;27.786;2023-06-10T06:39:33;10.60;;;3.63;;
63087;SDS011;49173;43.164;27.786;2023-06-10T06:41:58;5.95;;;3.10;;
63087;SDS011;49173;43.164;27.786;2023-06-10T06:44:24;5.38;;;3.35;;
63087;SDS011;49173;43.164;27.786;2023-06-10T06:46:50;10.77;;;3.30;;
63087;SDS011;49173;43.164;27.786;2023-06-10T06:49:16;6.07;;;2.97;;
63087;SDS011;49173;43.164;27.786;2023-06-10T06:51:41;7.72;;;3.40;;
63087;SDS011;49173;43.164;27.786;2023-06-10T06:54:10;6.25;;;3.40;;
63087;SDS011;49173;43.164;27.786;2023-06-10T06:56:37;6.30;;;3.22;;
63087;SDS011;49173;43.164;27.786;2023-06-10T06:59:04;6.28;;;2.85;;
63087;SDS011;49173;43.164;27.786;2023-06-10T07:01:30;8.55;;;2.60;;
63087;SDS011;49173;43.164;27.786;2023-06-10T07:03:56;9.02;;;2.38;;
63087;SDS011;49173;43.164;27.786;2023-06-10T07:06:23;5.00;;;2.30;;
63087;SDS011;49173;43.164;27.786;2023-06-10T07:08:50;4.40;;;2.35;;
63087;SDS011;49173;43.164;27.786;2023-06-10T07:11:17;4.25;;;2.30;;
63087;SDS011;49173;43.164;27.786;2023-06-10T07:13:44;4.50;;;2.20;;
63087;SDS011;49173;43.164;27.786;2023-06-10T07:16:10;6.70;;;2.50;;
63087;SDS011;49173;43.164;27.786;2023-06-10T07:18:36;8.30;;;2.55;;
63087;SDS011;49173;43.164;27.786;2023-06-10T07:21:02;4.72;;;2.90;;
63087;SDS011;49173;43.164;27.786;2023-06-10T07:23:28;5.90;;;2.75;;
63087;SDS011;49173;43.164;27.786;2023-06-10T07:25:54;7.55;;;2.88;;
63087;SDS011;49173;43.164;27.786;2023-06-10T07:28:19;9.00;;;2.80;;
63087;SDS011;49173;43.164;27.786;2023-06-10T07:30:46;9.82;;;2.92;;
63087;SDS011;49173;43.164;27.786;2023-06-10T07:33:11;6.95;;;2.63;;
63087;SDS011;49173;43.164;27.786;2023-06-10T07:35:37;12.32;;;3.30;;
63087;SDS011;49173;43.164;27.786;2023-06-10T07:38:04;7.53;;;3.10;;
63087;SDS011;49173;43.164;27.786;2023-06-10T07:40:30;6.10;;;3.20;;
63087;SDS011;49173;43.164;27.786;2023-06-10T07:42:56;6.72;;;2.53;;
63087;SDS011;49173;43.164;27.786;2023-06-10T07:45:22;6.50;;;2.80;;
63087;SDS011;49173;43.164;27.786;2023-06-10T07:47:47;6.05;;;2.25;;
63087;SDS011;49173;43.164;27.786;2023-06-10T07:50:13;5.50;;;2.45;;
63087;SDS011;49173;43.164;27.786;2023-06-10T07:52:39;4.68;;;2.33;;
63087;SDS011;49173;43.164;27.786;2023-06-10T07:55:05;6.95;;;2.78;;
63087;SDS011;49173;43.164;27.786;2023-06-10T07:57:31;4.78;;;2.63;;
63087;SDS011;49173;43.164;27.786;2023-06-10T08:00:02;5.45;;;2.70;;
63087;SDS011;49173;43.164;27.786;2023-06-10T08:02:29;6.67;;;2.43;;
63087;SDS011;49173;43.164;27.786;2023-06-10T08:04:55;8.18;;;2.90;;
63087;SDS011;49173;43.164;27.786;2023-06-10T08:07:21;5.18;;;2.70;;
63087;SDS011;49173;43.164;27.786;2023-06-10T08:09:47;7.18;;;2.40;;
63087;SDS011;49173;43.164;27.786;2023-06-10T08:12:13;6.32;;;2.58;;
63087;SDS011;49173;43.164;27.786;2023-06-10T08:14:39;5.30;;;2.80;;
63087;SDS011;49173;43.164;27.786;2023-06-10T08:17:05;6.60;;;2.55;;
63087;SDS011;49173;43.164;27.786;2023-06-10T08:19:32;5.57;;;2.33;;
63087;SDS011;49173;43.164;27.786;2023-06-10T08:21:57;6.10;;;2.40;;
63087;SDS011;49173;43.164;27.786;2023-06-10T08:24:23;6.85;;;2.30;;
63087;SDS011;49173;43.164;27.786;2023-06-10T08:26:49;8.07;;;2.20;;
63087;SDS011;49173;43.164;27.786;2023-06-10T08:29:15;4.13;;;2.00;;
63087;SDS011;49173;43.164;27.786;2023-06-10T08:31:42;7.15;;;2.38;;
63087;SDS011;49173;43.164;27.786;2023-06-10T08:34:15;3.80;;;2.05;;
63087;SDS011;49173;43.164;27.786;2023-06-10T08:36:44;6.25;;;2.92;;
63087;SDS011;49173;43.164;27.786;2023-06-10T08:39:18;4.85;;;2.58;;
63087;SDS011;49173;43.164;27.786;2023-06-10T08:45:04;5.05;;;2.50;;
63087;SDS011;49173;43.164;27.786;2023-06-10T08:47:33;3.95;;;2.00;;
63087;SDS011;49173;43.164;27.786;2023-06-10T08:50:06;4.15;;;2.10;;
63087;SDS011;49173;43.164;27.786;2023-06-10T08:52:38;4.65;;;2.40;;
63087;SDS011;49173;43.164;27.786;2023-06-10T08:57:46;7.05;;;2.10;;
63087;SDS011;49173;43.164;27.786;2023-06-10T09:00:19;9.30;;;2.28;;
63087;SDS011;49173;43.164;27.786;2023-06-10T09:02:49;6.78;;;2.50;;
63087;SDS011;49173;43.164;27.786;2023-06-10T09:05:26;5.25;;;2.40;;
63087;SDS011;49173;43.164;27.786;2023-06-10T09:07:58;8.07;;;2.15;;
63087;SDS011;49173;43.164;27.786;2023-06-10T09:10:32;4.75;;;2.33;;
63087;SDS011;49173;43.164;27.786;2023-06-10T09:12:59;9.73;;;2.65;;
63087;SDS011;49173;43.164;27.786;2023-06-10T09:15:31;5.45;;;2.15;;
63087;SDS011;49173;43.164;27.786;2023-06-10T09:18:03;8.15;;;2.58;;
63087;SDS011;49173;43.164;27.786;2023-06-10T09:20:41;11.20;;;2.47;;
63087;SDS011;49173;43.164;27.786;2023-06-10T09:23:11;6.30;;;2.28;;
63087;SDS011;49173;43.164;27.786;2023-06-10T09:25:43;7.88;;;2.80;;
63087;SDS011;49173;43.164;27.786;2023-06-10T09:28:49;7.15;;;2.17;;
63087;SDS011;49173;43.164;27.786;2023-06-10T09:31:26;7.50;;;2.50;;
63087;SDS011;49173;43.164;27.786;2023-06-10T09:36:40;5.05;;;2.20;;
63087;SDS011;49173;43.164;27.786;2023-06-10T09:39:18;5.97;;;2.05;;
63087;SDS011;49173;43.164;27.786;2023-06-10T09:41:47;6.53;;;2.50;;
63087;SDS011;49173;43.164;27.786;2023-06-10T09:44:16;7.25;;;2.20;;
63087;SDS011;49173;43.164;27.786;2023-06-10T09:46:49;6.55;;;2.30;;
63087;SDS011;49173;43.164;27.786;2023-06-10T09:49:28;5.88;;;2.55;;
63087;SDS011;49173;43.164;27.786;2023-06-10T09:51:55;5.78;;;2.40;;
63087;SDS011;49173;43.164;27.786;2023-06-10T09:54:31;7.45;;;2.13;;
63087;SDS011;49173;43.164;27.786;2023-06-10T09:57:06;4.97;;;2.03;;
63087;SDS011;49173;43.164;27.786;2023-06-10T09:59:37;4.05;;;2.38;;
63087;SDS011;49173;43.164;27.786;2023-06-10T10:02:15;5.00;;;2.28;;
63087;SDS011;49173;43.164;27.786;2023-06-10T10:04:53;4.68;;;2.40;;
63087;SDS011;49173;43.164;27.786;2023-06-10T10:07:38;4.05;;;2.53;;
63087;SDS011;49173;43.164;27.786;2023-06-10T10:10:10;12.23;;;2.40;;
63087;SDS011;49173;43.164;27.786;2023-06-10T10:12:44;5.72;;;2.53;;
63087;SDS011;49173;43.164;27.786;2023-06-10T10:15:17;4.55;;;2.35;;
63087;SDS011;49173;43.164;27.786;2023-06-10T10:18:03;12.43;;;2.50;;
63087;SDS011;49173;43.164;27.786;2023-06-10T10:20:40;7.50;;;2.30;;
63087;SDS011;49173;43.164;27.786;2023-06-10T10:23:32;7.85;;;2.60;;
63087;SDS011;49173;43.164;27.786;2023-06-10T10:26:14;4.95;;;2.58;;
63087;SDS011;49173;43.164;27.786;2023-06-10T10:29:14;9.13;;;2.88;;
63087;SDS011;49173;43.164;27.786;2023-06-10T10:31:51;6.50;;;2.67;;
63087;SDS011;49173;43.164;27.786;2023-06-10T10:34:36;6.93;;;2.72;;
63087;SDS011;49173;43.164;27.786;2023-06-10T10:37:06;7.28;;;2.40;;
63087;SDS011;49173;43.164;27.786;2023-06-10T10:39:35;6.20;;;2.50;;
63087;SDS011;49173;43.164;27.786;2023-06-10T10:42:11;6.97;;;2.40;;
63087;SDS011;49173;43.164;27.786;2023-06-10T10:44:42;6.38;;;2.83;;
63087;SDS011;49173;43.164;27.786;2023-06-10T10:47:18;8.27;;;2.85;;
63087;SDS011;49173;43.164;27.786;2023-06-10T10:49:54;6.78;;;2.40;;
63087;SDS011;49173;43.164;27.786;2023-06-10T10:52:46;7.05;;;2.50;;
63087;SDS011;49173;43.164;27.786;2023-06-10T10:55:19;5.15;;;2.42;;
63087;SDS011;49173;43.164;27.786;2023-06-10T10:58:07;5.40;;;2.20;;
63087;SDS011;49173;43.164;27.786;2023-06-10T11:00:35;5.57;;;2.55;;
63087;SDS011;49173;43.164;27.786;2023-06-10T11:05:37;5.65;;;2.80;;
63087;SDS011;49173;43.164;27.786;2023-06-10T11:08:10;5.65;;;2.30;;
63087;SDS011;49173;43.164;27.786;2023-06-10T11:10:51;11.52;;;2.95;;
63087;SDS011;49173;43.164;27.786;2023-06-10T11:13:27;7.53;;;2.20;;
63087;SDS011;49173;43.164;27.786;2023-06-10T11:16:02;7.90;;;2.60;;
63087;SDS011;49173;43.164;27.786;2023-06-10T11:18:40;4.65;;;2.42;;
63087;SDS011;49173;43.164;27.786;2023-06-10T11:21:09;5.85;;;2.45;;
63087;SDS011;49173;43.164;27.786;2023-06-10T11:23:39;7.10;;;2.50;;
63087;SDS011;49173;43.164;27.786;2023-06-10T11:29:06;8.32;;;2.63;;
63087;SDS011;49173;43.164;27.786;2023-06-10T11:31:39;4.32;;;2.60;;
63087;SDS011;49173;43.164;27.786;2023-06-10T11:34:21;6.30;;;2.80;;
63087;SDS011;49173;43.164;27.786;2023-06-10T11:36:55;13.50;;;3.05;;
63087;SDS011;49173;43.164;27.786;2023-06-10T11:39:27;7.72;;;2.60;;
63087;SDS011;49173;43.164;27.786;2023-06-10T11:41:58;4.85;;;2.45;;
63087;SDS011;49173;43.164;27.786;2023-06-10T11:44:30;5.85;;;2.47;;
63087;SDS011;49173;43.164;27.786;2023-06-10T11:47:03;8.02;;;2.60;;
63087;SDS011;49173;43.164;27.786;2023-06-10T11:49:37;6.93;;;2.78;;
63087;SDS011;49173;43.164;27.786;2023-06-10T11:52:06;9.43;;;2.55;;
63087;SDS011;49173;43.164;27.786;2023-06-10T11:54:37;5.90;;;2.55;;
63087;SDS011;49173;43.164;27.786;2023-06-10T11:57:06;6.03;;;3.30;;
63087;SDS011;49173;43.164;27.786;2023-06-10T11:59:36;7.00;;;2.85;;
63087;SDS011;49173;43.164;27.786;2023-06-10T12:02:07;7.90;;;3.17;;
63087;SDS011;49173;43.164;27.786;2023-06-10T12:04:49;3.92;;;2.20;;
63087;SDS011;49173;43.164;27.786;2023-06-10T12:07:20;6.18;;;2.38;;
63087;SDS011;49173;43.164;27.786;2023-06-10T12:09:59;6.95;;;2.65;;
63087;SDS011;49173;43.164;27.786;2023-06-10T12:12:41;6.80;;;2.42;;
63087;SDS011;49173;43.164;27.786;2023-06-10T12:15:23;4.53;;;2.50;;
63087;SDS011;49173;43.164;27.786;2023-06-10T12:17:57;5.43;;;2.70;;
63087;SDS011;49173;43.164;27.786;2023-06-10T12:20:39;6.88;;;2.70;;
63087;SDS011;49173;43.164;27.786;2023-06-10T12:23:15;8.18;;;3.00;;
63087;SDS011;49173;43.164;27.786;2023-06-10T12:25:54;5.35;;;2.90;;
63087;SDS011;49173;43.164;27.786;2023-06-10T12:28:25;12.95;;;3.00;;
63087;SDS011;49173;43.164;27.786;2023-06-10T12:31:13;6.90;;;2.90;;
63087;SDS011;49173;43.164;27.786;2023-06-10T12:33:43;11.25;;;2.45;;
63087;SDS011;49173;43.164;27.786;2023-06-10T12:36:15;6.78;;;2.60;;
63087;SDS011;49173;43.164;27.786;2023-06-10T12:38:47;6.38;;;2.53;;
63087;SDS011;49173;43.164;27.786;2023-06-10T12:41:18;6.68;;;2.72;;
63087;SDS011;49173;43.164;27.786;2023-06-10T12:43:47;7.22;;;2.50;;
63087;SDS011;49173;43.164;27.786;2023-06-10T12:46:17;7.38;;;2.95;;
63087;SDS011;49173;43.164;27.786;2023-06-10T12:48:59;6.45;;;2.70;;
63087;SDS011;49173;43.164;27.786;2023-06-10T12:51:28;8.10;;;2.60;;
63087;SDS011;49173;43.164;27.786;2023-06-10T12:54:00;4.63;;;2.40;;
63087;SDS011;49173;43.164;27.786;2023-06-10T12:56:29;6.03;;;2.90;;
63087;SDS011;49173;43.164;27.786;2023-06-10T12:58:59;4.82;;;2.40;;
63087;SDS011;49173;43.164;27.786;2023-06-10T13:01:31;6.45;;;2.38;;
63087;SDS011;49173;43.164;27.786;2023-06-10T13:04:06;8.75;;;3.20;;
63087;SDS011;49173;43.164;27.786;2023-06-10T13:06:36;5.28;;;2.85;;
63087;SDS011;49173;43.164;27.786;2023-06-10T13:09:07;5.97;;;2.75;;
63087;SDS011;49173;43.164;27.786;2023-06-10T13:11:40;8.52;;;2.88;;
63087;SDS011;49173;43.164;27.786;2023-06-10T13:14:12;6.50;;;2.80;;
63087;SDS011;49173;43.164;27.786;2023-06-10T13:16:44;4.55;;;2.58;;
63087;SDS011;49173;43.164;27.786;2023-06-10T13:19:13;5.75;;;2.90;;
63087;SDS011;49173;43.164;27.786;2023-06-10T13:21:53;8.25;;;2.78;;
63087;SDS011;49173;43.164;27.786;2023-06-10T13:24:20;9.63;;;2.80;;
63087;SDS011;49173;43.164;27.786;2023-06-10T13:26:49;11.07;;;2.90;;
63087;SDS011;49173;43.164;27.786;2023-06-10T13:29:18;5.82;;;2.88;;
63087;SDS011;49173;43.164;27.786;2023-06-10T13:31:49;5.40;;;2.88;;
63087;SDS011;49173;43.164;27.786;2023-06-10T13:34:19;7.15;;;3.13;;
63087;SDS011;49173;43.164;27.786;2023-06-10T13:36:54;10.15;;;3.10;;
63087;SDS011;49173;43.164;27.786;2023-06-10T13:39:24;9.02;;;2.90;;
63087;SDS011;49173;43.164;27.786;2023-06-10T13:41:53;5.43;;;2.90;;
63087;SDS011;49173;43.164;27.786;2023-06-10T13:47:18;7.95;;;2.92;;
63087;SDS011;49173;43.164;27.786;2023-06-10T13:49:53;7.75;;;3.00;;
63087;SDS011;49173;43.164;27.786;2023-06-10T13:52:26;14.00;;;2.95;;
63087;SDS011;49173;43.164;27.786;2023-06-10T13:54:58;9.23;;;2.63;;
63087;SDS011;49173;43.164;27.786;2023-06-10T13:57:39;7.57;;;2.88;;
63087;SDS011;49173;43.164;27.786;2023-06-10T14:00:06;7.28;;;2.97;;
63087;SDS011;49173;43.164;27.786;2023-06-10T14:02:36;10.27;;;3.20;;
63087;SDS011;49173;43.164;27.786;2023-06-10T14:05:08;6.72;;;2.60;;
63087;SDS011;49173;43.164;27.786;2023-06-10T14:07:40;9.52;;;2.80;;
63087;SDS011;49173;43.164;27.786;2023-06-10T14:10:09;9.15;;;2.53;;
63087;SDS011;49173;43.164;27.786;2023-06-10T14:12:41;8.27;;;2.80;;
63087;SDS011;49173;43.164;27.786;2023-06-10T14:15:10;6.88;;;2.83;;
63087;SDS011;49173;43.164;27.786;2023-06-10T14:17:37;5.68;;;2.60;;
63087;SDS011;49173;43.164;27.786;2023-06-10T14:20:04;5.18;;;2.80;;
63087;SDS011;49173;43.164;27.786;2023-06-10T14:22:35;9.77;;;3.13;;
63087;SDS011;49173;43.164;27.786;2023-06-10T14:25:07;6.95;;;3.25;;
63087;SDS011;49173;43.164;27.786;2023-06-10T14:27:41;7.22;;;2.85;;
63087;SDS011;49173;43.164;27.786;2023-06-10T14:30:13;5.80;;;2.80;;
63087;SDS011;49173;43.164;27.786;2023-06-10T14:32:57;7.95;;;2.53;;
63087;SDS011;49173;43.164;27.786;2023-06-10T14:35:29;7.43;;;2.80;;
63087;SDS011;49173;43.164;27.786;2023-06-10T14:38:01;9.60;;;2.95;;
63087;SDS011;49173;43.164;27.786;2023-06-10T14:40:30;9.40;;;3.20;;
63087;SDS011;49173;43.164;27.786;2023-06-10T14:43:02;4.95;;;2.70;;
63087;SDS011;49173;43.164;27.786;2023-06-10T14:45:47;5.03;;;2.90;;
63087;SDS011;49173;43.164;27.786;2023-06-10T14:48:18;13.52;;;2.83;;
63087;SDS011;49173;43.164;27.786;2023-06-10T14:50:56;10.07;;;2.55;;
63087;SDS011;49173;43.164;27.786;2023-06-10T14:53:23;11.50;;;2.70;;
63087;SDS011;49173;43.164;27.786;2023-06-10T14:55:57;9.60;;;2.95;;
63087;SDS011;49173;43.164;27.786;2023-06-10T14:58:38;6.10;;;2.88;;
63087;SDS011;49173;43.164;27.786;2023-06-10T15:03:37;8.95;;;2.50;;
63087;SDS011;49173;43.164;27.786;2023-06-10T15:06:29;6.45;;;2.67;;
63087;SDS011;49173;43.164;27.786;2023-06-10T15:08:58;5.05;;;2.60;;